Flugplatz Friedersdorf

Für EDCF sind keine METAR/TAF Berichte vorhanden.
Es werden die Flugwettermeldungen vom Flugplatz Berlin-Schönefeld International in 21 km Entfernung angezeigt.

Bericht für EDDB

vom 18.09. um 01:50 UTC

Wind 8 kt aus 290°

Sichtweite 10 km oder mehr

gering bewölkt in 1500 ft

aufgebrochene Bewölkung in 3700 ft

Temperatur 13.0°C

Taupunkt 10.0°C

Luftfeuchtigkeit 82%

Luftdruck 1013 hPa

keine wesentliche Wetteränderung innerhalb den nächsten 2 Stunden zu erwarten

EDDB 180150Z 29008KT 9999 FEW015 BKN037 13/10 Q1013 NOSIG

Prognose für EDDB

vom 17.09. um 23:00 UTC

Zwischen 00:00 UTC und 03:00 UTC

Wind 7 kt aus 290°

Sichtweite 10 km oder mehr

aufgebrochene Bewölkung in 3000 ft


Zwischen 03:00 und 05:00 UTC übergehend zu

Wind 7 kt aus 290°

Sichtweite 10 km oder mehr

aufgebrochene Bewölkung in 1200 ft


Zwischen 04:00 UTC und 09:00 UTC zeitweise mit einer Wahrscheinlichkeit von 40%

Sichtweite 4000 m

schwacher Sprühregen

aufgebrochene Bewölkung in 500 ft


Zwischen 07:00 und 09:00 UTC übergehend zu

Wind 8 kt aus 30°

Sichtweite 10 km oder mehr

aufgebrochene Bewölkung in 1200 ft


Zwischen 11:00 und 13:00 UTC übergehend zu

Wind 8 kt aus 30°

Sichtweite 10 km oder mehr

aufgebrochene Bewölkung in 3500 ft

TAF EDDB 172300Z 1800/1824 29007KT 9999 BKN030 BECMG 1803/1805 BKN012 PROB40 TEMPO 1804/1809 4000 -DZ BKN005 BECMG 1807/1809 03008KT BECMG 1811/1813 BKN035
Impressum